Time;durP1;ratioP1;P1;durP2;ratioP2;P2;SDS_P1;SDS_P2;PMS_P1;PMS_P2;Temp;Humidity;BMP_temperature;BMP_pressure;BME280_temperature;BME280_humidity;BME280_pressure;Samples;Min_cycle;Max_cycle;Signal;HPM_P1;HPM_P2
2023/12/05 00:01:07;;;;;;;26.75;11.88;;;;;;;;;;5084709;28;20390;-73
2023/12/05 00:03:34;;;;;;;25.63;11.35;;;;;;;;;;5092623;28;20023;-73
2023/12/05 00:06:00;;;;;;;24.10;10.57;;;;;;;;;;5094288;28;20031;-73
2023/12/05 00:08:25;;;;;;;25.65;11.45;;;;;;;;;;5066423;28;20763;-72
2023/12/05 00:10:50;;;;;;;23.52;11.38;;;;;;;;;;5081088;28;20111;-73
2023/12/05 00:13:19;;;;;;;24.85;11.65;;;;;;;;;;5086425;28;20058;-72
2023/12/05 00:15:44;;;;;;;25.50;12.00;;;;;;;;;;5074204;28;20036;-73
2023/12/05 00:18:09;;;;;;;29.85;11.40;;;;;;;;;;5092832;28;20024;-73
2023/12/05 00:20:35;;;;;;;24.00;11.10;;;;;;;;;;5082170;28;20055;-73
2023/12/05 00:23:00;;;;;;;26.10;11.23;;;;;;;;;;5072810;28;20065;-73
2023/12/05 00:25:26;;;;;;;24.45;11.30;;;;;;;;;;5087680;28;20031;-73
2023/12/05 00:27:51;;;;;;;25.17;12.15;;;;;;;;;;5091054;28;20020;-72
2023/12/05 00:30:16;;;;;;;27.05;12.20;;;;;;;;;;5074549;28;20506;-72
2023/12/05 00:32:42;;;;;;;25.20;11.35;;;;;;;;;;5085517;28;20032;-72
2023/12/05 00:35:07;;;;;;;26.20;11.90;;;;;;;;;;5082939;28;20022;-72
2023/12/05 00:37:32;;;;;;;27.05;12.65;;;;;;;;;;5091473;28;20051;-72
2023/12/05 00:39:57;;;;;;;28.33;12.73;;;;;;;;;;5081268;28;20028;-72
2023/12/05 00:42:23;;;;;;;26.65;12.27;;;;;;;;;;5088082;28;20677;-72
2023/12/05 00:44:48;;;;;;;27.42;12.70;;;;;;;;;;5085208;28;20020;-72
2023/12/05 00:47:14;;;;;;;28.98;11.88;;;;;;;;;;5079065;28;20062;-73
2023/12/05 00:49:39;;;;;;;24.30;11.57;;;;;;;;;;5075627;28;20024;-74
2023/12/05 00:52:04;;;;;;;26.52;12.30;;;;;;;;;;5097327;28;20042;-73
2023/12/05 00:54:30;;;;;;;27.90;11.52;;;;;;;;;;5117157;28;20080;-73
2023/12/05 00:56:55;;;;;;;23.83;11.60;;;;;;;;;;5101848;28;20092;-73
2023/12/05 00:59:20;;;;;;;25.40;12.03;;;;;;;;;;5107061;28;20320;-72
2023/12/05 01:01:45;;;;;;;24.95;12.10;;;;;;;;;;5105075;28;20261;-72
2023/12/05 01:04:11;;;;;;;28.35;13.07;;;;;;;;;;5110045;28;20039;-74
2023/12/05 01:06:36;;;;;;;27.10;12.52;;;;;;;;;;5085084;28;20032;-72
2023/12/05 01:09:01;;;;;;;26.73;12.55;;;;;;;;;;5072156;28;20024;-72
2023/12/05 01:11:27;;;;;;;28.10;12.75;;;;;;;;;;5082403;28;20469;-72
2023/12/05 01:13:52;;;;;;;27.80;12.95;;;;;;;;;;5083948;28;20032;-72
2023/12/05 01:16:17;;;;;;;28.20;13.13;;;;;;;;;;5088829;28;20023;-72
2023/12/05 01:18:43;;;;;;;27.02;12.38;;;;;;;;;;5076108;28;20033;-73
2023/12/05 01:21:08;;;;;;;28.35;13.10;;;;;;;;;;5066038;28;20027;-72
2023/12/05 01:23:34;;;;;;;31.20;13.75;;;;;;;;;;5075020;28;20174;-72
2023/12/05 01:25:59;;;;;;;27.95;13.30;;;;;;;;;;5086626;28;20012;-72
2023/12/05 01:28:24;;;;;;;30.20;12.93;;;;;;;;;;5073886;28;20110;-72
2023/12/05 01:30:49;;;;;;;24.60;12.07;;;;;;;;;;5076760;28;20272;-72
2023/12/05 01:33:15;;;;;;;29.35;13.10;;;;;;;;;;5063845;28;20367;-72
2023/12/05 01:35:42;;;;;;;27.73;12.55;;;;;;;;;;5083439;28;20039;-72
2023/12/05 01:38:08;;;;;;;27.73;12.98;;;;;;;;;;5085617;28;20016;-71
2023/12/05 01:40:33;;;;;;;27.77;12.88;;;;;;;;;;5086768;28;20726;-72
2023/12/05 01:42:58;;;;;;;31.58;13.57;;;;;;;;;;5088005;28;20031;-71
2023/12/05 01:45:24;;;;;;;30.52;13.98;;;;;;;;;;5065427;28;20125;-72
2023/12/05 01:47:52;;;;;;;35.80;15.03;;;;;;;;;;5085458;28;20084;-73
2023/12/05 01:50:21;;;;;;;31.80;14.53;;;;;;;;;;5080649;28;20292;-73
2023/12/05 01:52:49;;;;;;;30.90;13.90;;;;;;;;;;5057704;28;20031;-73
2023/12/05 01:55:15;;;;;;;30.75;14.25;;;;;;;;;;5081218;28;20101;-72
2023/12/05 01:57:40;;;;;;;32.00;13.95;;;;;;;;;;5082489;28;20475;-72
2023/12/05 02:00:06;;;;;;;33.90;13.95;;;;;;;;;;5073879;28;20059;-72
2023/12/05 02:02:31;;;;;;;28.17;12.55;;;;;;;;;;5069823;28;20035;-72
2023/12/05 02:04:57;;;;;;;29.98;13.50;;;;;;;;;;5090001;28;20091;-72
2023/12/05 02:07:23;;;;;;;28.08;13.05;;;;;;;;;;5082280;28;20028;-73
2023/12/05 02:09:48;;;;;;;28.05;12.63;;;;;;;;;;5070005;28;20432;-72
2023/12/05 02:12:14;;;;;;;28.25;13.00;;;;;;;;;;5071495;28;20554;-73
2023/12/05 02:14:39;;;;;;;29.23;13.45;;;;;;;;;;5084834;28;20589;-73
2023/12/05 02:17:05;;;;;;;28.40;12.80;;;;;;;;;;5084840;28;20032;-73
2023/12/05 02:19:42;;;;;;;29.93;13.67;;;;;;;;;;5083530;28;20103;-73
2023/12/05 02:22:11;;;;;;;26.60;12.00;;;;;;;;;;5081667;28;20325;-72
2023/12/05 02:24:39;;;;;;;29.25;13.93;;;;;;;;;;5082909;28;20111;-72
2023/12/05 02:27:27;;;;;;;29.67;13.88;;;;;;;;;;5086155;28;20034;-72
2023/12/05 02:29:53;;;;;;;28.92;12.82;;;;;;;;;;5083559;28;20031;-70
2023/12/05 02:32:18;;;;;;;32.22;14.43;;;;;;;;;;5078631;28;20032;-69
2023/12/05 02:34:44;;;;;;;31.90;14.23;;;;;;;;;;5083199;28;20032;-70
2023/12/05 02:37:09;;;;;;;31.88;13.60;;;;;;;;;;5079000;28;20016;-71
2023/12/05 02:39:44;;;;;;;34.13;14.30;;;;;;;;;;5077532;28;20042;-69
2023/12/05 02:42:11;;;;;;;31.70;14.18;;;;;;;;;;5071440;28;20280;-69
2023/12/05 02:44:55;;;;;;;32.47;13.38;;;;;;;;;;5084310;28;20525;-69
2023/12/05 02:47:22;;;;;;;30.42;13.65;;;;;;;;;;5088302;28;20032;-71
2023/12/05 02:49:48;;;;;;;32.33;13.13;;;;;;;;;;5089722;28;20032;-69
2023/12/05 02:52:13;;;;;;;28.58;13.25;;;;;;;;;;5087626;28;20374;-68
2023/12/05 02:54:39;;;;;;;29.38;13.90;;;;;;;;;;5071751;28;20028;-69
2023/12/05 02:57:04;;;;;;;31.63;13.00;;;;;;;;;;5089424;28;20121;-71
2023/12/05 02:59:29;;;;;;;25.35;12.88;;;;;;;;;;5073738;28;20107;-70
2023/12/05 03:01:55;;;;;;;27.52;13.13;;;;;;;;;;5094828;28;20082;-70
2023/12/05 03:04:20;;;;;;;30.10;13.32;;;;;;;;;;5093232;28;20028;-71
2023/12/05 03:06:45;;;;;;;28.20;13.75;;;;;;;;;;5085617;28;20540;-70
2023/12/05 03:09:11;;;;;;;27.80;12.95;;;;;;;;;;5087420;28;20039;-70
2023/12/05 03:11:36;;;;;;;27.02;12.82;;;;;;;;;;5095300;28;20024;-70
2023/12/05 03:14:03;;;;;;;27.20;13.57;;;;;;;;;;5089307;28;20340;-70
2023/12/05 03:16:28;;;;;;;32.05;14.43;;;;;;;;;;5089698;28;20385;-71
2023/12/05 03:18:54;;;;;;;38.33;15.23;;;;;;;;;;5069131;28;20119;-71
2023/12/05 03:21:20;;;;;;;35.47;14.32;;;;;;;;;;5082788;28;20020;-71
2023/12/05 03:23:45;;;;;;;32.90;14.02;;;;;;;;;;5088342;28;20024;-70
2023/12/05 03:26:20;;;;;;;31.67;14.13;;;;;;;;;;5090233;28;20016;-71
2023/12/05 03:28:47;;;;;;;39.58;16.98;;;;;;;;;;5089516;28;20027;-70
2023/12/05 03:31:12;;;;;;;36.58;16.23;;;;;;;;;;5085987;28;20032;-70
2023/12/05 03:33:38;;;;;;;38.20;14.55;;;;;;;;;;5087590;28;20035;-70
2023/12/05 03:36:04;;;;;;;42.20;15.55;;;;;;;;;;5087167;28;20036;-71
2023/12/05 03:38:29;;;;;;;34.38;14.18;;;;;;;;;;5084811;28;20371;-70
2023/12/05 03:40:55;;;;;;;29.33;13.82;;;;;;;;;;5074803;28;20028;-71
2023/12/05 03:43:20;;;;;;;34.13;14.82;;;;;;;;;;5082825;28;20031;-70
2023/12/05 03:45:46;;;;;;;29.42;13.52;;;;;;;;;;5084218;28;20039;-69
2023/12/05 03:48:11;;;;;;;30.13;13.65;;;;;;;;;;5111783;28;20030;-69
2023/12/05 03:50:36;;;;;;;29.80;12.88;;;;;;;;;;5098655;28;20040;-69
2023/12/05 03:53:02;;;;;;;29.58;12.93;;;;;;;;;;5088229;28;20024;-70
2023/12/05 03:55:29;;;;;;;31.10;13.60;;;;;;;;;;5107712;28;20038;-71
2023/12/05 03:57:54;;;;;;;28.83;13.15;;;;;;;;;;5114651;28;20036;-70
2023/12/05 04:00:19;;;;;;;26.88;13.13;;;;;;;;;;5101623;28;20036;-70
2023/12/05 04:02:44;;;;;;;30.25;13.38;;;;;;;;;;5085827;28;20059;-70
2023/12/05 04:05:10;;;;;;;29.10;13.52;;;;;;;;;;5074355;28;20031;-71
2023/12/05 04:07:36;;;;;;;26.58;13.02;;;;;;;;;;5083384;28;20111;-70
2023/12/05 04:10:02;;;;;;;26.80;12.85;;;;;;;;;;5090001;28;20028;-69
2023/12/05 04:12:28;;;;;;;26.88;12.02;;;;;;;;;;5071529;28;20035;-69
2023/12/05 04:14:53;;;;;;;26.90;12.10;;;;;;;;;;5094555;28;20023;-70
2023/12/05 04:17:18;;;;;;;33.55;12.98;;;;;;;;;;5086349;28;20064;-72
2023/12/05 04:19:44;;;;;;;30.83;12.95;;;;;;;;;;5071569;28;20073;-72
2023/12/05 04:22:09;;;;;;;29.40;13.57;;;;;;;;;;5082229;28;20651;-72
2023/12/05 04:24:34;;;;;;;33.90;13.17;;;;;;;;;;5093006;28;20425;-73
2023/12/05 04:27:00;;;;;;;26.95;12.30;;;;;;;;;;5086127;28;20291;-73
2023/12/05 04:29:25;;;;;;;30.67;13.17;;;;;;;;;;5086104;28;20070;-73
2023/12/05 04:31:50;;;;;;;27.60;13.00;;;;;;;;;;5072216;28;20693;-73
2023/12/05 04:34:15;;;;;;;34.42;13.15;;;;;;;;;;5082679;28;20343;-72
2023/12/05 04:36:41;;;;;;;31.02;13.15;;;;;;;;;;5072880;28;20024;-71
2023/12/05 04:39:07;;;;;;;25.85;12.25;;;;;;;;;;5090426;28;20509;-72
2023/12/05 04:41:34;;;;;;;29.88;12.65;;;;;;;;;;5081091;28;20043;-71
2023/12/05 04:44:00;;;;;;;33.45;13.23;;;;;;;;;;5084313;28;20485;-72
2023/12/05 04:46:25;;;;;;;33.28;12.90;;;;;;;;;;5086922;28;20028;-72
2023/12/05 04:48:50;;;;;;;31.33;12.40;;;;;;;;;;5087792;28;20027;-73
2023/12/05 04:51:19;;;;;;;27.63;13.20;;;;;;;;;;5067957;28;20949;-72
2023/12/05 04:53:44;;;;;;;28.75;12.70;;;;;;;;;;5061322;28;20281;-71
2023/12/05 04:56:10;;;;;;;29.58;12.98;;;;;;;;;;5069774;28;20033;-72
2023/12/05 04:58:35;;;;;;;31.65;13.25;;;;;;;;;;5062938;28;20032;-73
2023/12/05 05:01:01;;;;;;;29.42;13.20;;;;;;;;;;5057075;28;20033;-73
2023/12/05 05:03:26;;;;;;;30.08;13.65;;;;;;;;;;5069237;28;20055;-73
2023/12/05 05:05:51;;;;;;;28.48;13.15;;;;;;;;;;5067986;28;20019;-72
2023/12/05 05:08:17;;;;;;;27.70;12.82;;;;;;;;;;5069537;28;20081;-73
2023/12/05 05:10:42;;;;;;;30.83;13.80;;;;;;;;;;5071633;28;20040;-73
2023/12/05 05:13:07;;;;;;;32.20;14.25;;;;;;;;;;5070789;28;20054;-72
2023/12/05 05:15:32;;;;;;;30.25;13.50;;;;;;;;;;5062208;28;20490;-73
2023/12/05 05:17:58;;;;;;;31.27;13.40;;;;;;;;;;5060481;28;20017;-72
2023/12/05 05:20:23;;;;;;;27.47;13.03;;;;;;;;;;5061981;28;20278;-72
2023/12/05 05:22:48;;;;;;;27.08;12.38;;;;;;;;;;5069742;28;20264;-72
2023/12/05 05:25:15;;;;;;;28.00;12.90;;;;;;;;;;5063564;28;20028;-72
2023/12/05 05:27:41;;;;;;;27.80;13.10;;;;;;;;;;5064424;28;20059;-72
2023/12/05 05:30:06;;;;;;;25.15;12.40;;;;;;;;;;5063149;28;20419;-72
2023/12/05 05:32:32;;;;;;;30.10;12.93;;;;;;;;;;5070423;28;20091;-72
2023/12/05 05:34:57;;;;;;;29.50;13.65;;;;;;;;;;5070158;28;20023;-73
2023/12/05 05:37:22;;;;;;;41.28;17.92;;;;;;;;;;5068148;28;20031;-73
2023/12/05 05:39:48;;;;;;;38.67;16.40;;;;;;;;;;5067262;28;20056;-74
2023/12/05 05:42:13;;;;;;;38.67;14.50;;;;;;;;;;5064443;28;20031;-73
2023/12/05 05:44:39;;;;;;;36.13;15.85;;;;;;;;;;5067124;28;20423;-72
2023/12/05 05:47:04;;;;;;;27.45;13.88;;;;;;;;;;5069628;28;20024;-72
2023/12/05 05:49:29;;;;;;;27.77;13.25;;;;;;;;;;5067485;28;20070;-73
2023/12/05 05:51:55;;;;;;;28.10;13.15;;;;;;;;;;5084777;28;20077;-73
2023/12/05 05:54:21;;;;;;;35.53;13.33;;;;;;;;;;5086641;28;20084;-72
2023/12/05 05:56:47;;;;;;;48.08;16.75;;;;;;;;;;5087205;28;20326;-73
2023/12/05 05:59:12;;;;;;;48.28;16.75;;;;;;;;;;5089891;28;20039;-72
2023/12/05 06:01:47;;;;;;;37.90;14.48;;;;;;;;;;5080866;28;20028;-72
2023/12/05 06:04:12;;;;;;;32.67;13.95;;;;;;;;;;5062606;28;20119;-72
2023/12/05 06:06:46;;;;;;;36.00;14.10;;;;;;;;;;5084924;28;20103;-72
2023/12/05 06:09:11;;;;;;;34.95;13.57;;;;;;;;;;5085586;28;20043;-72
2023/12/05 06:11:37;;;;;;;37.90;14.88;;;;;;;;;;5081541;28;20165;-72
2023/12/05 06:14:03;;;;;;;33.42;14.48;;;;;;;;;;5086040;28;20032;-74
2023/12/05 06:16:28;;;;;;;45.17;15.00;;;;;;;;;;5081075;28;20039;-73
2023/12/05 06:18:54;;;;;;;39.63;15.90;;;;;;;;;;5083929;28;20025;-74
2023/12/05 06:21:22;;;;;;;38.60;16.35;;;;;;;;;;5086609;28;20034;-73
2023/12/05 06:23:47;;;;;;;36.63;15.27;;;;;;;;;;5071689;28;20051;-73
2023/12/05 06:26:13;;;;;;;45.80;16.58;;;;;;;;;;5084227;28;20466;-73
2023/12/05 06:28:38;;;;;;;32.63;15.65;;;;;;;;;;5087607;28;20076;-73
2023/12/05 06:31:03;;;;;;;34.27;16.23;;;;;;;;;;5092839;28;20410;-73
2023/12/05 06:33:32;;;;;;;42.70;17.30;;;;;;;;;;5076425;28;20293;-71
2023/12/05 06:35:58;;;;;;;44.08;18.85;;;;;;;;;;5099936;28;20034;-72
2023/12/05 06:38:23;;;;;;;41.40;19.33;;;;;;;;;;5073982;28;20028;-71
2023/12/05 06:40:48;;;;;;;47.67;18.77;;;;;;;;;;5076145;28;20476;-72
2023/12/05 06:43:14;;;;;;;53.03;20.60;;;;;;;;;;5104923;28;20327;-72
2023/12/05 06:45:39;;;;;;;39.47;18.10;;;;;;;;;;5102356;28;20032;-72
2023/12/05 06:48:04;;;;;;;38.78;17.42;;;;;;;;;;5108229;28;20025;-71
2023/12/05 06:50:30;;;;;;;39.88;17.27;;;;;;;;;;5068264;28;20135;-72
2023/12/05 06:52:57;;;;;;;40.50;16.88;;;;;;;;;;5064692;28;20024;-71
2023/12/05 06:55:25;;;;;;;39.83;16.92;;;;;;;;;;5103197;28;20047;-72
2023/12/05 06:57:50;;;;;;;35.05;15.30;;;;;;;;;;5090149;28;20023;-73
2023/12/05 07:00:16;;;;;;;35.15;14.80;;;;;;;;;;5070835;28;20021;-73
2023/12/05 07:02:41;;;;;;;34.35;15.23;;;;;;;;;;5064175;28;20043;-73
2023/12/05 07:05:08;;;;;;;30.02;13.77;;;;;;;;;;5083684;28;20055;-73
2023/12/05 07:07:34;;;;;;;38.38;15.02;;;;;;;;;;5086547;28;20227;-72
2023/12/05 07:09:59;;;;;;;34.63;14.98;;;;;;;;;;5087116;28;20021;-74
2023/12/05 07:12:24;;;;;;;33.25;14.35;;;;;;;;;;5083475;28;20032;-73
2023/12/05 07:14:49;;;;;;;38.90;16.35;;;;;;;;;;5078765;28;20035;-73
2023/12/05 07:17:15;;;;;;;51.85;19.05;;;;;;;;;;5087309;28;20403;-73
2023/12/05 07:19:40;;;;;;;45.45;17.50;;;;;;;;;;5074287;28;20423;-73
2023/12/05 07:22:05;;;;;;;48.20;17.75;;;;;;;;;;5092094;28;20020;-73
2023/12/05 07:24:31;;;;;;;40.58;15.80;;;;;;;;;;5084405;28;20166;-73
2023/12/05 07:26:56;;;;;;;37.03;15.77;;;;;;;;;;5070520;28;20111;-73
2023/12/05 07:29:21;;;;;;;41.35;16.05;;;;;;;;;;5085885;28;20086;-73
2023/12/05 07:31:46;;;;;;;42.22;14.50;;;;;;;;;;5089471;28;20419;-73
2023/12/05 07:34:12;;;;;;;48.58;15.88;;;;;;;;;;5089769;28;20434;-73
2023/12/05 07:36:41;;;;;;;35.40;15.63;;;;;;;;;;5087954;28;20115;-71
2023/12/05 07:39:06;;;;;;;35.90;16.48;;;;;;;;;;5083198;28;20489;-73
2023/12/05 07:41:31;;;;;;;36.55;16.83;;;;;;;;;;5086214;28;20027;-73
2023/12/05 07:43:57;;;;;;;38.50;16.13;;;;;;;;;;5079137;28;20679;-73
2023/12/05 07:46:23;;;;;;;34.88;15.95;;;;;;;;;;5089842;28;20028;-74
2023/12/05 07:48:48;;;;;;;46.80;17.27;;;;;;;;;;5067516;28;20020;-74
2023/12/05 07:51:17;;;;;;;51.33;17.33;;;;;;;;;;5067554;28;20051;-74
2023/12/05 07:53:42;;;;;;;37.47;15.73;;;;;;;;;;5088213;28;20032;-74
2023/12/05 07:56:08;;;;;;;51.80;18.63;;;;;;;;;;5092968;28;20027;-73
2023/12/05 07:58:33;;;;;;;52.13;21.17;;;;;;;;;;5095627;28;20029;-73
2023/12/05 08:00:58;;;;;;;58.70;21.98;;;;;;;;;;5070572;28;20046;-72
2023/12/05 08:03:24;;;;;;;46.42;20.35;;;;;;;;;;5082657;28;20024;-73
2023/12/05 08:05:49;;;;;;;39.00;18.20;;;;;;;;;;5089373;28;20024;-72
2023/12/05 08:08:14;;;;;;;39.92;16.55;;;;;;;;;;5087713;28;20027;-73
2023/12/05 08:10:40;;;;;;;35.78;15.88;;;;;;;;;;5066524;28;20538;-72
2023/12/05 08:13:05;;;;;;;40.47;16.75;;;;;;;;;;5086993;28;20051;-72
2023/12/05 08:15:30;;;;;;;47.57;17.83;;;;;;;;;;5068971;28;20024;-73
2023/12/05 08:17:55;;;;;;;45.50;16.77;;;;;;;;;;5087653;28;20276;-73
2023/12/05 08:20:21;;;;;;;41.17;17.03;;;;;;;;;;5095052;28;20037;-72
2023/12/05 08:22:46;;;;;;;50.00;18.30;;;;;;;;;;5088076;28;20272;-73
2023/12/05 08:25:11;;;;;;;51.57;19.70;;;;;;;;;;5072862;28;20065;-73
2023/12/05 08:27:37;;;;;;;40.80;17.25;;;;;;;;;;5085563;28;20629;-73
2023/12/05 08:30:02;;;;;;;40.65;16.13;;;;;;;;;;5087311;28;20024;-73
2023/12/05 08:32:28;;;;;;;36.47;15.65;;;;;;;;;;5085406;28;20052;-74
2023/12/05 08:34:53;;;;;;;31.45;14.27;;;;;;;;;;5062478;28;20560;-73
2023/12/05 08:37:18;;;;;;;29.50;12.88;;;;;;;;;;5086654;28;20074;-73
2023/12/05 08:39:44;;;;;;;25.30;12.30;;;;;;;;;;5093175;28;20057;-73
2023/12/05 08:42:09;;;;;;;27.40;12.07;;;;;;;;;;5091165;28;20784;-73
2023/12/05 08:44:34;;;;;;;22.83;11.80;;;;;;;;;;5089207;28;20111;-74
2023/12/05 08:47:00;;;;;;;28.85;12.55;;;;;;;;;;5086977;28;20164;-73
2023/12/05 08:49:25;;;;;;;25.67;12.00;;;;;;;;;;5082312;28;20028;-72
2023/12/05 08:51:50;;;;;;;25.55;11.95;;;;;;;;;;5085877;28;20375;-73
2023/12/05 08:54:16;;;;;;;24.63;12.10;;;;;;;;;;5071554;28;20028;-72
2023/12/05 08:56:41;;;;;;;26.25;12.18;;;;;;;;;;5089049;28;20053;-73
2023/12/05 08:59:06;;;;;;;24.55;11.70;;;;;;;;;;5072878;28;20599;-73
2023/12/05 09:01:32;;;;;;;25.58;11.73;;;;;;;;;;5079088;28;20028;-73
2023/12/05 09:03:57;;;;;;;24.52;11.63;;;;;;;;;;5087521;28;20230;-73
2023/12/05 09:06:22;;;;;;;26.55;13.07;;;;;;;;;;5087749;28;20037;-71
2023/12/05 09:08:48;;;;;;;31.42;12.75;;;;;;;;;;5072667;28;20126;-72
2023/12/05 09:11:13;;;;;;;28.10;13.18;;;;;;;;;;5086485;28;20109;-72
2023/12/05 09:13:38;;;;;;;25.70;12.75;;;;;;;;;;5080754;28;20067;-71
2023/12/05 09:16:04;;;;;;;26.87;11.97;;;;;;;;;;5088703;28;20036;-72
2023/12/05 09:18:31;;;;;;;23.67;11.80;;;;;;;;;;5073136;28;20273;-72
2023/12/05 09:20:59;;;;;;;28.48;13.38;;;;;;;;;;5073565;28;20043;-72
2023/12/05 09:23:24;;;;;;;29.95;13.07;;;;;;;;;;5057408;28;20032;-74
2023/12/05 09:25:50;;;;;;;24.90;11.57;;;;;;;;;;5088020;28;20043;-73
2023/12/05 09:28:15;;;;;;;26.00;12.93;;;;;;;;;;5074116;28;20028;-73
2023/12/05 09:30:40;;;;;;;27.55;11.25;;;;;;;;;;5084773;28;20087;-73
2023/12/05 09:33:06;;;;;;;26.85;12.73;;;;;;;;;;5084144;28;20545;-73
2023/12/05 09:35:32;;;;;;;26.85;12.57;;;;;;;;;;5082803;28;20685;-73
2023/12/05 09:37:57;;;;;;;28.52;12.88;;;;;;;;;;5083079;28;20027;-74
2023/12/05 09:40:23;;;;;;;24.27;12.63;;;;;;;;;;5083917;28;20482;-73
2023/12/05 09:42:49;;;;;;;25.55;12.63;;;;;;;;;;5065099;28;20301;-74
2023/12/05 09:45:15;;;;;;;27.85;11.65;;;;;;;;;;5087226;28;20052;-74
2023/12/05 09:47:45;;;;;;;19.98;10.75;;;;;;;;;;5081633;28;20138;-74
2023/12/05 09:50:10;;;;;;;24.08;11.32;;;;;;;;;;5083538;28;20122;-75
2023/12/05 09:52:36;;;;;;;25.15;11.30;;;;;;;;;;5089398;28;20102;-73
2023/12/05 09:55:01;;;;;;;27.60;11.20;;;;;;;;;;5090246;28;20110;-73
2023/12/05 09:57:27;;;;;;;29.92;11.00;;;;;;;;;;5093092;28;20043;-74
2023/12/05 09:59:53;;;;;;;24.33;10.85;;;;;;;;;;5087482;28;20028;-75
2023/12/05 10:02:20;;;;;;;22.80;11.40;;;;;;;;;;5087074;28;20127;-75
2023/12/05 10:04:49;;;;;;;24.15;11.65;;;;;;;;;;5072869;28;20043;-75
2023/12/05 10:07:15;;;;;;;20.77;10.38;;;;;;;;;;5072907;28;20035;-74
2023/12/05 10:09:41;;;;;;;23.55;11.60;;;;;;;;;;5067714;28;20028;-74
2023/12/05 10:12:08;;;;;;;22.73;11.05;;;;;;;;;;5085758;28;20024;-74
2023/12/05 10:14:34;;;;;;;25.73;10.25;;;;;;;;;;5087727;28;20057;-74
2023/12/05 10:17:00;;;;;;;20.90;10.32;;;;;;;;;;5088635;28;20597;-74
2023/12/05 10:19:26;;;;;;;21.77;10.75;;;;;;;;;;5085123;28;20722;-74
2023/12/05 10:21:51;;;;;;;21.27;10.52;;;;;;;;;;5082614;28;20139;-74
2023/12/05 10:24:17;;;;;;;23.58;10.98;;;;;;;;;;5065369;28;20060;-75
2023/12/05 10:26:43;;;;;;;20.60;10.75;;;;;;;;;;5090060;28;20028;-75
2023/12/05 10:29:09;;;;;;;23.05;11.20;;;;;;;;;;5087210;28;20667;-74
2023/12/05 10:31:34;;;;;;;21.63;10.80;;;;;;;;;;5065713;28;20031;-76
2023/12/05 10:34:05;;;;;;;24.23;11.50;;;;;;;;;;5089908;28;20036;-75
2023/12/05 10:36:31;;;;;;;25.63;11.40;;;;;;;;;;5080246;28;20273;-76
2023/12/05 10:38:56;;;;;;;26.15;10.88;;;;;;;;;;5078185;28;20030;-75
2023/12/05 10:41:22;;;;;;;27.38;11.98;;;;;;;;;;5100304;28;20035;-75
2023/12/05 10:43:49;;;;;;;25.42;11.30;;;;;;;;;;5084832;28;20120;-74
2023/12/05 10:46:14;;;;;;;22.13;10.40;;;;;;;;;;5066118;28;20616;-74
2023/12/05 10:48:40;;;;;;;21.40;10.00;;;;;;;;;;5085562;28;20056;-73
2023/12/05 10:51:05;;;;;;;23.83;10.95;;;;;;;;;;5075680;28;20499;-73
2023/12/05 10:53:34;;;;;;;21.63;10.35;;;;;;;;;;5090143;28;20051;-74
2023/12/05 10:56:09;;;;;;;22.27;10.57;;;;;;;;;;5089322;28;20050;-73
2023/12/05 10:58:35;;;;;;;19.90;9.90;;;;;;;;;;5089410;28;20028;-74
2023/12/05 11:01:01;;;;;;;24.77;10.57;;;;;;;;;;5076693;28;20491;-73
2023/12/05 11:03:26;;;;;;;24.58;10.70;;;;;;;;;;5088969;28;20020;-73
2023/12/05 11:05:52;;;;;;;24.35;11.23;;;;;;;;;;5094319;28;20023;-69
2023/12/05 11:08:17;;;;;;;21.08;10.63;;;;;;;;;;5072982;28;20031;-70
2023/12/05 11:10:42;;;;;;;21.65;10.63;;;;;;;;;;5083737;28;20031;-69
2023/12/05 11:13:10;;;;;;;22.45;11.02;;;;;;;;;;5088730;28;20355;-69
2023/12/05 11:15:36;;;;;;;22.10;10.18;;;;;;;;;;5082859;28;20514;-70
2023/12/05 11:18:12;;;;;;;24.63;11.18;;;;;;;;;;5084401;28;20955;-69
2023/12/05 11:20:56;;;;;;;25.58;11.98;;;;;;;;;;5070176;28;20081;-67
2023/12/05 11:23:27;;;;;;;23.73;11.55;;;;;;;;;;5080003;28;20068;-68
2023/12/05 11:26:11;;;;;;;24.23;11.38;;;;;;;;;;5063991;28;20669;-71
2023/12/05 11:28:37;;;;;;;33.42;13.30;;;;;;;;;;5086040;28;20027;-70
2023/12/05 11:31:24;;;;;;;32.13;13.00;;;;;;;;;;5075882;28;20020;-71
2023/12/05 11:34:10;;;;;;;28.92;12.55;;;;;;;;;;5082929;28;20028;-71
2023/12/05 11:36:38;;;;;;;25.48;11.27;;;;;;;;;;5092134;28;20072;-70
2023/12/05 11:39:04;;;;;;;24.55;11.00;;;;;;;;;;5094568;28;20481;-71
2023/12/05 11:41:29;;;;;;;28.40;11.60;;;;;;;;;;5071981;28;20573;-71
2023/12/05 11:44:13;;;;;;;22.25;10.80;;;;;;;;;;5088247;28;20024;-70
2023/12/05 11:46:42;;;;;;;21.30;10.63;;;;;;;;;;5081778;28;20025;-70
2023/12/05 11:49:07;;;;;;;20.35;10.65;;;;;;;;;;5064323;28;20999;-71
2023/12/05 11:51:33;;;;;;;23.27;11.23;;;;;;;;;;5075003;28;20048;-70
2023/12/05 11:54:02;;;;;;;24.77;11.60;;;;;;;;;;5072055;28;20612;-70
2023/12/05 11:56:28;;;;;;;25.70;11.65;;;;;;;;;;5091492;28;20036;-70
2023/12/05 11:59:13;;;;;;;28.67;11.65;;;;;;;;;;5081036;28;20073;-69
2023/12/05 12:01:38;;;;;;;22.88;11.15;;;;;;;;;;5095276;28;20032;-70
2023/12/05 12:04:17;;;;;;;24.73;11.65;;;;;;;;;;5092399;28;20105;-68
2023/12/05 12:06:42;;;;;;;25.17;12.55;;;;;;;;;;5091655;28;20020;-69
2023/12/05 12:09:08;;;;;;;27.98;11.52;;;;;;;;;;5084402;28;20020;-68
2023/12/05 12:11:34;;;;;;;19.95;10.25;;;;;;;;;;5083924;28;20105;-70
2023/12/05 12:14:10;;;;;;;23.00;10.93;;;;;;;;;;5085439;28;20501;-69
2023/12/05 12:16:38;;;;;;;25.63;11.18;;;;;;;;;;5085143;28;20027;-69
2023/12/05 12:19:03;;;;;;;23.33;10.30;;;;;;;;;;5083812;28;20020;-70
2023/12/05 12:21:29;;;;;;;21.23;11.00;;;;;;;;;;5080690;28;20016;-69
2023/12/05 12:23:56;;;;;;;22.15;10.05;;;;;;;;;;5084782;28;20024;-71
2023/12/05 12:26:21;;;;;;;22.98;10.50;;;;;;;;;;5091562;28;20024;-69
2023/12/05 12:28:49;;;;;;;22.27;9.70;;;;;;;;;;5073562;28;20031;-71
2023/12/05 12:31:24;;;;;;;20.35;9.68;;;;;;;;;;5085305;28;20024;-69
2023/12/05 12:33:49;;;;;;;23.63;11.05;;;;;;;;;;5065126;28;20020;-68
2023/12/05 12:36:14;;;;;;;29.03;12.43;;;;;;;;;;5072840;28;20506;-68
2023/12/05 12:38:40;;;;;;;21.52;10.65;;;;;;;;;;5084192;28;20309;-69
2023/12/05 12:41:05;;;;;;;22.33;10.85;;;;;;;;;;5092555;28;20049;-70
2023/12/05 12:43:33;;;;;;;25.10;11.65;;;;;;;;;;5080327;28;20176;-69
2023/12/05 12:45:59;;;;;;;25.83;11.65;;;;;;;;;;5085182;28;20031;-68
2023/12/05 12:48:25;;;;;;;26.08;11.50;;;;;;;;;;5068312;28;20114;-69
2023/12/05 12:50:50;;;;;;;25.10;10.77;;;;;;;;;;5091490;28;20203;-69
2023/12/05 12:53:16;;;;;;;30.10;12.13;;;;;;;;;;5070720;28;20567;-71
2023/12/05 12:55:41;;;;;;;27.17;11.60;;;;;;;;;;5080991;28;20032;-68
2023/12/05 12:58:06;;;;;;;28.30;10.73;;;;;;;;;;5067913;28;20035;-69
2023/12/05 13:00:36;;;;;;;24.13;11.00;;;;;;;;;;5083588;28;20032;-69
2023/12/05 13:03:01;;;;;;;34.63;11.73;;;;;;;;;;5080355;28;20032;-69
2023/12/05 13:05:35;;;;;;;25.95;11.25;;;;;;;;;;5088070;28;20032;-69
2023/12/05 13:08:00;;;;;;;26.30;11.23;;;;;;;;;;5098018;28;20040;-69
2023/12/05 13:10:27;;;;;;;21.17;11.30;;;;;;;;;;5104512;28;20071;-69
2023/12/05 13:12:52;;;;;;;21.92;10.98;;;;;;;;;;5078892;28;20024;-68
2023/12/05 13:15:25;;;;;;;28.80;12.40;;;;;;;;;;5103948;28;20023;-69
2023/12/05 13:17:56;;;;;;;25.90;12.90;;;;;;;;;;5091147;28;20027;-69
2023/12/05 13:20:21;;;;;;;30.75;13.50;;;;;;;;;;5084710;28;20106;-71
2023/12/05 13:22:48;;;;;;;28.08;13.05;;;;;;;;;;5073313;28;20036;-71
2023/12/05 13:25:13;;;;;;;37.60;12.50;;;;;;;;;;5072237;28;20081;-70
2023/12/05 13:27:39;;;;;;;30.67;11.95;;;;;;;;;;5087335;28;20425;-71
2023/12/05 13:30:04;;;;;;;34.58;12.35;;;;;;;;;;5083442;28;20020;-70
2023/12/05 13:32:30;;;;;;;39.20;12.02;;;;;;;;;;5079917;28;20028;-69
2023/12/05 13:34:55;;;;;;;33.53;12.40;;;;;;;;;;5064974;28;20639;-70
2023/12/05 13:37:21;;;;;;;32.10;12.63;;;;;;;;;;5084652;28;20047;-70
2023/12/05 13:39:47;;;;;;;25.88;11.82;;;;;;;;;;5071360;28;20036;-70
2023/12/05 13:42:12;;;;;;;19.50;9.50;;;;;;;;;;5088620;28;20078;-67
2023/12/05 13:44:42;;;;;;;15.13;8.45;;;;;;;;;;5081275;28;20263;-69
2023/12/05 13:47:08;;;;;;;17.05;9.30;;;;;;;;;;5083786;28;20047;-69
2023/12/05 13:49:33;;;;;;;20.27;9.15;;;;;;;;;;5069925;28;20280;-68
2023/12/05 13:51:58;;;;;;;22.57;10.00;;;;;;;;;;5076643;28;20059;-71
2023/12/05 13:54:25;;;;;;;19.80;9.25;;;;;;;;;;5062863;28;20631;-67
2023/12/05 13:56:51;;;;;;;20.65;8.63;;;;;;;;;;5084291;28;20040;-71
2023/12/05 13:59:17;;;;;;;21.35;10.15;;;;;;;;;;5083000;28;20817;-70
2023/12/05 14:01:42;;;;;;;23.02;9.95;;;;;;;;;;5066549;28;20024;-70
2023/12/05 14:04:07;;;;;;;25.10;10.83;;;;;;;;;;5085675;28;20107;-70
2023/12/05 14:06:33;;;;;;;32.50;10.53;;;;;;;;;;5082071;28;20288;-69
2023/12/05 14:08:58;;;;;;;27.65;9.90;;;;;;;;;;5066747;28;20265;-70
2023/12/05 14:11:23;;;;;;;19.85;9.20;;;;;;;;;;5087847;28;20082;-71
2023/12/05 14:13:49;;;;;;;19.40;9.13;;;;;;;;;;5073649;28;20040;-71